sensor_id;sensor_type;location;lat;lon;timestamp;temperature;humidity
29173;DHT22;16223;47.966;-1.616;2022-11-15T00:00:36;10.1;96
29173;DHT22;16223;47.966;-1.616;2022-11-15T00:01:36;10.1;96
29173;DHT22;16223;47.966;-1.616;2022-11-15T00:02:36;10.3;96
29173;DHT22;16223;47.966;-1.616;2022-11-15T00:03:36;10.3;96
29173;DHT22;16223;47.966;-1.616;2022-11-15T00:04:36;10.3;96
29173;DHT22;16223;47.966;-1.616;2022-11-15T00:05:36;10.3;96
29173;DHT22;16223;47.966;-1.616;2022-11-15T00:06:36;10.3;96
29173;DHT22;16223;47.966;-1.616;2022-11-15T00:07:36;10.4;96
29173;DHT22;16223;47.966;-1.616;2022-11-15T00:08:36;10.4;96
29173;DHT22;16223;47.966;-1.616;2022-11-15T00:09:36;10.4;96
29173;DHT22;16223;47.966;-1.616;2022-11-15T00:10:37;10.4;96
29173;DHT22;16223;47.966;-1.616;2022-11-15T00:11:36;10.4;96
29173;DHT22;16223;47.966;-1.616;2022-11-15T00:12:36;10.4;96
29173;DHT22;16223;47.966;-1.616;2022-11-15T00:13:36;10.4;96
29173;DHT22;16223;47.966;-1.616;2022-11-15T00:14:37;10.4;96
29173;DHT22;16223;47.966;-1.616;2022-11-15T00:15:37;10.4;96
29173;DHT22;16223;47.966;-1.616;2022-11-15T00:16:36;10.4;96
29173;DHT22;16223;47.966;-1.616;2022-11-15T00:17:35;10.4;96
29173;DHT22;16223;47.966;-1.616;2022-11-15T00:18:37;10.4;96
29173;DHT22;16223;47.966;-1.616;2022-11-15T00:19:36;10.4;96
29173;DHT22;16223;47.966;-1.616;2022-11-15T00:20:36;10.4;96
29173;DHT22;16223;47.966;-1.616;2022-11-15T00:21:36;10.4;96
29173;DHT22;16223;47.966;-1.616;2022-11-15T00:22:36;10.4;96
29173;DHT22;16223;47.966;-1.616;2022-11-15T00:23:36;10.4;96
29173;DHT22;16223;47.966;-1.616;2022-11-15T00:24:36;10.4;96
29173;DHT22;16223;47.966;-1.616;2022-11-15T00:25:36;10.4;96
29173;DHT22;16223;47.966;-1.616;2022-11-15T00:26:36;10.4;96
29173;DHT22;16223;47.966;-1.616;2022-11-15T00:27:36;10.4;96
29173;DHT22;16223;47.966;-1.616;2022-11-15T00:28:36;10.4;96
29173;DHT22;16223;47.966;-1.616;2022-11-15T00:29:36;10.4;96
29173;DHT22;16223;47.966;-1.616;2022-11-15T00:30:37;10.4;96
29173;DHT22;16223;47.966;-1.616;2022-11-15T00:31:37;10.4;96
29173;DHT22;16223;47.966;-1.616;2022-11-15T00:32:36;10.8;95
29173;DHT22;16223;47.966;-1.616;2022-11-15T00:33:36;10.8;95
29173;DHT22;16223;47.966;-1.616;2022-11-15T00:34:37;10.8;95
29173;DHT22;16223;47.966;-1.616;2022-11-15T00:35:37;10.8;95
29173;DHT22;16223;47.966;-1.616;2022-11-15T00:36:36;10.8;95
29173;DHT22;16223;47.966;-1.616;2022-11-15T00:37:38;10.8;95
29173;DHT22;16223;47.966;-1.616;2022-11-15T00:38:38;10.8;95
29173;DHT22;16223;47.966;-1.616;2022-11-15T00:39:40;10.8;95
29173;DHT22;16223;47.966;-1.616;2022-11-15T00:40:36;10.8;95
29173;DHT22;16223;47.966;-1.616;2022-11-15T00:41:36;10.8;95
29173;DHT22;16223;47.966;-1.616;2022-11-15T00:42:37;10.8;95
29173;DHT22;16223;47.966;-1.616;2022-11-15T00:43:36;10.8;95
29173;DHT22;16223;47.966;-1.616;2022-11-15T00:44:37;10.8;95
29173;DHT22;16223;47.966;-1.616;2022-11-15T00:45:36;10.8;95
29173;DHT22;16223;47.966;-1.616;2022-11-15T00:46:36;10.8;95
29173;DHT22;16223;47.966;-1.616;2022-11-15T00:47:36;10.8;95
29173;DHT22;16223;47.966;-1.616;2022-11-15T00:48:36;10.8;95
29173;DHT22;16223;47.966;-1.616;2022-11-15T00:49:36;10.8;95
29173;DHT22;16223;47.966;-1.616;2022-11-15T00:50:35;10.8;95
29173;DHT22;16223;47.966;-1.616;2022-11-15T00:51:36;10.8;95
29173;DHT22;16223;47.966;-1.616;2022-11-15T00:52:36;10.8;95
29173;DHT22;16223;47.966;-1.616;2022-11-15T00:53:37;10.8;95
29173;DHT22;16223;47.966;-1.616;2022-11-15T00:54:36;10.8;95
29173;DHT22;16223;47.966;-1.616;2022-11-15T00:55:36;10.8;95
29173;DHT22;16223;47.966;-1.616;2022-11-15T00:56:36;10.8;95
29173;DHT22;16223;47.966;-1.616;2022-11-15T00:57:36;10.8;95
29173;DHT22;16223;47.966;-1.616;2022-11-15T00:58:36;10.8;95
29173;DHT22;16223;47.966;-1.616;2022-11-15T00:59:36;10.8;95
29173;DHT22;16223;47.966;-1.616;2022-11-15T01:00:36;10.9;94
29173;DHT22;16223;47.966;-1.616;2022-11-15T01:01:36;10.9;94
29173;DHT22;16223;47.966;-1.616;2022-11-15T01:02:37;10.9;94
29173;DHT22;16223;47.966;-1.616;2022-11-15T01:03:36;10.9;94
29173;DHT22;16223;47.966;-1.616;2022-11-15T01:04:36;10.9;94
29173;DHT22;16223;47.966;-1.616;2022-11-15T01:05:36;10.9;94
29173;DHT22;16223;47.966;-1.616;2022-11-15T01:06:36;10.9;94
29173;DHT22;16223;47.966;-1.616;2022-11-15T01:07:37;10.9;94
29173;DHT22;16223;47.966;-1.616;2022-11-15T01:08:36;10.9;94
29173;DHT22;16223;47.966;-1.616;2022-11-15T01:09:36;10.9;94
29173;DHT22;16223;47.966;-1.616;2022-11-15T01:10:36;10.9;94
29173;DHT22;16223;47.966;-1.616;2022-11-15T01:11:36;10.9;94
29173;DHT22;16223;47.966;-1.616;2022-11-15T01:12:36;10.9;94
29173;DHT22;16223;47.966;-1.616;2022-11-15T01:13:37;10.9;94
29173;DHT22;16223;47.966;-1.616;2022-11-15T01:14:36;10.9;94
29173;DHT22;16223;47.966;-1.616;2022-11-15T01:15:38;10.9;94
29173;DHT22;16223;47.966;-1.616;2022-11-15T01:16:36;10.9;94
29173;DHT22;16223;47.966;-1.616;2022-11-15T01:17:36;10.9;94
29173;DHT22;16223;47.966;-1.616;2022-11-15T01:18:36;10.9;94
29173;DHT22;16223;47.966;-1.616;2022-11-15T01:19:39;10.9;94
29173;DHT22;16223;47.966;-1.616;2022-11-15T01:20:39;10.9;94
29173;DHT22;16223;47.966;-1.616;2022-11-15T01:21:36;10.9;94
29173;DHT22;16223;47.966;-1.616;2022-11-15T01:22:36;10.9;94
29173;DHT22;16223;47.966;-1.616;2022-11-15T01:23:36;10.9;94
29173;DHT22;16223;47.966;-1.616;2022-11-15T01:24:36;10.9;94
29173;DHT22;16223;47.966;-1.616;2022-11-15T01:25:37;10.9;94
29173;DHT22;16223;47.966;-1.616;2022-11-15T01:26:36;10.9;94
29173;DHT22;16223;47.966;-1.616;2022-11-15T01:27:36;10.9;94
29173;DHT22;16223;47.966;-1.616;2022-11-15T01:28:37;10.9;94
29173;DHT22;16223;47.966;-1.616;2022-11-15T01:29:36;10.9;94
29173;DHT22;16223;47.966;-1.616;2022-11-15T01:30:37;10.9;94
29173;DHT22;16223;47.966;-1.616;2022-11-15T01:31:36;10.9;94
29173;DHT22;16223;47.966;-1.616;2022-11-15T01:32:36;10.9;94
29173;DHT22;16223;47.966;-1.616;2022-11-15T01:33:36;11.4;93
29173;DHT22;16223;47.966;-1.616;2022-11-15T01:34:36;11.4;93
29173;DHT22;16223;47.966;-1.616;2022-11-15T01:35:40;11.4;93
29173;DHT22;16223;47.966;-1.616;2022-11-15T01:36:36;11.4;93
29173;DHT22;16223;47.966;-1.616;2022-11-15T01:37:36;11.4;93
29173;DHT22;16223;47.966;-1.616;2022-11-15T01:38:37;11.4;93
29173;DHT22;16223;47.966;-1.616;2022-11-15T01:39:36;11.4;93
29173;DHT22;16223;47.966;-1.616;2022-11-15T01:40:36;11.4;93
29173;DHT22;16223;47.966;-1.616;2022-11-15T01:41:36;11.4;93
29173;DHT22;16223;47.966;-1.616;2022-11-15T01:42:36;11.4;93
29173;DHT22;16223;47.966;-1.616;2022-11-15T01:43:37;11.4;93
29173;DHT22;16223;47.966;-1.616;2022-11-15T01:44:42;11.4;93
29173;DHT22;16223;47.966;-1.616;2022-11-15T01:45:36;11.4;93
29173;DHT22;16223;47.966;-1.616;2022-11-15T01:46:37;11.4;93
29173;DHT22;16223;47.966;-1.616;2022-11-15T01:47:39;11.4;93
29173;DHT22;16223;47.966;-1.616;2022-11-15T01:48:37;11.4;93
29173;DHT22;16223;47.966;-1.616;2022-11-15T01:49:38;11.4;93
29173;DHT22;16223;47.966;-1.616;2022-11-15T01:50:36;11.4;93
29173;DHT22;16223;47.966;-1.616;2022-11-15T01:51:36;11.4;93
29173;DHT22;16223;47.966;-1.616;2022-11-15T01:52:36;11.4;93
29173;DHT22;16223;47.966;-1.616;2022-11-15T01:53:37;11.4;93
29173;DHT22;16223;47.966;-1.616;2022-11-15T01:54:36;11.5;93
29173;DHT22;16223;47.966;-1.616;2022-11-15T01:55:37;11.5;93
29173;DHT22;16223;47.966;-1.616;2022-11-15T01:56:41;11.5;93
29173;DHT22;16223;47.966;-1.616;2022-11-15T01:57:36;11.5;93
29173;DHT22;16223;47.966;-1.616;2022-11-15T01:58:36;11.5;93
29173;DHT22;16223;47.966;-1.616;2022-11-15T01:59:36;11.5;93
29173;DHT22;16223;47.966;-1.616;2022-11-15T02:00:36;11.5;93
29173;DHT22;16223;47.966;-1.616;2022-11-15T02:01:36;11.5;93
29173;DHT22;16223;47.966;-1.616;2022-11-15T02:02:36;11.5;93
29173;DHT22;16223;47.966;-1.616;2022-11-15T02:03:41;11.5;93
29173;DHT22;16223;47.966;-1.616;2022-11-15T02:04:40;11.5;93
29173;DHT22;16223;47.966;-1.616;2022-11-15T02:05:37;11.5;93
29173;DHT22;16223;47.966;-1.616;2022-11-15T02:06:36;11.5;93
29173;DHT22;16223;47.966;-1.616;2022-11-15T02:07:37;11.5;93
29173;DHT22;16223;47.966;-1.616;2022-11-15T02:08:36;11.5;93
29173;DHT22;16223;47.966;-1.616;2022-11-15T02:09:37;11.5;93
29173;DHT22;16223;47.966;-1.616;2022-11-15T02:10:36;11.5;93
29173;DHT22;16223;47.966;-1.616;2022-11-15T02:11:36;11.5;93
29173;DHT22;16223;47.966;-1.616;2022-11-15T02:12:36;11.5;93
29173;DHT22;16223;47.966;-1.616;2022-11-15T02:13:36;11.5;93
29173;DHT22;16223;47.966;-1.616;2022-11-15T02:14:37;11.5;93
29173;DHT22;16223;47.966;-1.616;2022-11-15T02:15:44;11.5;93
29173;DHT22;16223;47.966;-1.616;2022-11-15T02:16:39;11.5;93
29173;DHT22;16223;47.966;-1.616;2022-11-15T02:17:48;11.5;93
29173;DHT22;16223;47.966;-1.616;2022-11-15T02:18:39;11.5;93
29173;DHT22;16223;47.966;-1.616;2022-11-15T02:20:03;11.5;93
29173;DHT22;16223;47.966;-1.616;2022-11-15T02:20:48;11.5;93
29173;DHT22;16223;47.966;-1.616;2022-11-15T02:21:40;11.5;93
29173;DHT22;16223;47.966;-1.616;2022-11-15T02:22:42;11.5;93
29173;DHT22;16223;47.966;-1.616;2022-11-15T02:26:37;11.5;93
29173;DHT22;16223;47.966;-1.616;2022-11-15T02:30:02;11.5;93
29173;DHT22;16223;47.966;-1.616;2022-11-15T02:30:49;11.5;93
29173;DHT22;16223;47.966;-1.616;2022-11-15T02:31:51;11.5;93
29173;DHT22;16223;47.966;-1.616;2022-11-15T02:32:50;11.5;93
29173;DHT22;16223;47.966;-1.616;2022-11-15T02:33:53;11.5;93
29173;DHT22;16223;47.966;-1.616;2022-11-15T02:34:54;11.5;93
29173;DHT22;16223;47.966;-1.616;2022-11-15T02:35:54;11.5;93
29173;DHT22;16223;47.966;-1.616;2022-11-15T02:37:04;11.5;93
29173;DHT22;16223;47.966;-1.616;2022-11-15T02:37:51;11.5;93
29173;DHT22;16223;47.966;-1.616;2022-11-15T02:38:52;11.5;93
29173;DHT22;16223;47.966;-1.616;2022-11-15T02:39:53;11.5;93
29173;DHT22;16223;47.966;-1.616;2022-11-15T02:40:51;11.5;93
29173;DHT22;16223;47.966;-1.616;2022-11-15T02:41:50;11.5;93
29173;DHT22;16223;47.966;-1.616;2022-11-15T02:42:50;11.5;93
29173;DHT22;16223;47.966;-1.616;2022-11-15T02:43:48;11.5;93
29173;DHT22;16223;47.966;-1.616;2022-11-15T02:44:48;11.5;93
29173;DHT22;16223;47.966;-1.616;2022-11-15T02:45:51;11.5;93
29173;DHT22;16223;47.966;-1.616;2022-11-15T02:46:51;11.5;93
29173;DHT22;16223;47.966;-1.616;2022-11-15T02:47:49;11.2;94
29173;DHT22;16223;47.966;-1.616;2022-11-15T02:48:48;11.2;94
29173;DHT22;16223;47.966;-1.616;2022-11-15T02:49:50;11.2;94
29173;DHT22;16223;47.966;-1.616;2022-11-15T02:50:47;11.2;94
29173;DHT22;16223;47.966;-1.616;2022-11-15T02:51:49;11.2;94
29173;DHT22;16223;47.966;-1.616;2022-11-15T02:52:48;11.2;94
29173;DHT22;16223;47.966;-1.616;2022-11-15T02:53:47;11.2;94
29173;DHT22;16223;47.966;-1.616;2022-11-15T02:54:56;11.2;94
29173;DHT22;16223;47.966;-1.616;2022-11-15T02:55:49;11.2;94
29173;DHT22;16223;47.966;-1.616;2022-11-15T02:56:48;11.2;94
29173;DHT22;16223;47.966;-1.616;2022-11-15T02:57:52;11.2;94
29173;DHT22;16223;47.966;-1.616;2022-11-15T02:58:58;11.2;94
29173;DHT22;16223;47.966;-1.616;2022-11-15T03:00:03;11.2;94
29173;DHT22;16223;47.966;-1.616;2022-11-15T03:00:51;11.2;94
29173;DHT22;16223;47.966;-1.616;2022-11-15T03:01:55;11.2;94
29173;DHT22;16223;47.966;-1.616;2022-11-15T03:03:09;11.2;94
29173;DHT22;16223;47.966;-1.616;2022-11-15T03:03:56;11.2;94
29173;DHT22;16223;47.966;-1.616;2022-11-15T03:04:54;11.2;94
29173;DHT22;16223;47.966;-1.616;2022-11-15T03:05:53;11.2;94
29173;DHT22;16223;47.966;-1.616;2022-11-15T03:06:56;11.2;94
29173;DHT22;16223;47.966;-1.616;2022-11-15T03:07:54;11.2;94
29173;DHT22;16223;47.966;-1.616;2022-11-15T03:08:53;11.2;94
29173;DHT22;16223;47.966;-1.616;2022-11-15T03:09:52;11.2;94
29173;DHT22;16223;47.966;-1.616;2022-11-15T03:10:52;11.2;94
29173;DHT22;16223;47.966;-1.616;2022-11-15T03:11:54;11.2;94
29173;DHT22;16223;47.966;-1.616;2022-11-15T03:12:51;11.2;94
29173;DHT22;16223;47.966;-1.616;2022-11-15T03:13:52;11.2;94
29173;DHT22;16223;47.966;-1.616;2022-11-15T03:14:53;11.2;94
29173;DHT22;16223;47.966;-1.616;2022-11-15T03:15:53;11.2;94
29173;DHT22;16223;47.966;-1.616;2022-11-15T03:16:51;11.2;94
29173;DHT22;16223;47.966;-1.616;2022-11-15T03:17:52;11.2;94
29173;DHT22;16223;47.966;-1.616;2022-11-15T03:18:51;11.2;94
29173;DHT22;16223;47.966;-1.616;2022-11-15T03:19:49;11.2;94
29173;DHT22;16223;47.966;-1.616;2022-11-15T03:20:48;11.2;94
29173;DHT22;16223;47.966;-1.616;2022-11-15T03:21:48;11.2;94
29173;DHT22;16223;47.966;-1.616;2022-11-15T03:22:48;11.2;94
29173;DHT22;16223;47.966;-1.616;2022-11-15T03:23:48;11.2;94
29173;DHT22;16223;47.966;-1.616;2022-11-15T03:24:51;11.2;94
29173;DHT22;16223;47.966;-1.616;2022-11-15T03:25:50;11.2;94
29173;DHT22;16223;47.966;-1.616;2022-11-15T03:26:48;11.2;94
29173;DHT22;16223;47.966;-1.616;2022-11-15T03:27:51;11.2;94
29173;DHT22;16223;47.966;-1.616;2022-11-15T03:28:49;11.2;94
29173;DHT22;16223;47.966;-1.616;2022-11-15T03:29:49;11.2;94
29173;DHT22;16223;47.966;-1.616;2022-11-15T03:30:48;11.2;94
29173;DHT22;16223;47.966;-1.616;2022-11-15T03:31:51;11.2;94
29173;DHT22;16223;47.966;-1.616;2022-11-15T03:32:49;11.2;94
29173;DHT22;16223;47.966;-1.616;2022-11-15T03:33:47;11.2;94
29173;DHT22;16223;47.966;-1.616;2022-11-15T03:34:50;11.2;94
29173;DHT22;16223;47.966;-1.616;2022-11-15T03:35:48;11.2;94
29173;DHT22;16223;47.966;-1.616;2022-11-15T03:36:47;11.2;94
29173;DHT22;16223;47.966;-1.616;2022-11-15T03:37:49;11.2;96
29173;DHT22;16223;47.966;-1.616;2022-11-15T03:38:47;11.2;96
29173;DHT22;16223;47.966;-1.616;2022-11-15T03:39:47;11.2;96
29173;DHT22;16223;47.966;-1.616;2022-11-15T03:40:52;11.2;96
29173;DHT22;16223;47.966;-1.616;2022-11-15T03:41:51;11.2;96
29173;DHT22;16223;47.966;-1.616;2022-11-15T03:43:04;11.2;96
29173;DHT22;16223;47.966;-1.616;2022-11-15T03:43:51;11.2;96
29173;DHT22;16223;47.966;-1.616;2022-11-15T03:44:51;11.2;96
29173;DHT22;16223;47.966;-1.616;2022-11-15T03:45:50;11.2;96
29173;DHT22;16223;47.966;-1.616;2022-11-15T03:46:51;11.2;96
29173;DHT22;16223;47.966;-1.616;2022-11-15T03:47:51;11.2;96
29173;DHT22;16223;47.966;-1.616;2022-11-15T03:48:52;11.2;96
29173;DHT22;16223;47.966;-1.616;2022-11-15T03:49:50;11.2;96
29173;DHT22;16223;47.966;-1.616;2022-11-15T03:50:47;11.2;96
29173;DHT22;16223;47.966;-1.616;2022-11-15T03:51:47;11.2;96
29173;DHT22;16223;47.966;-1.616;2022-11-15T03:52:48;11.2;96
29173;DHT22;16223;47.966;-1.616;2022-11-15T03:53:47;11.2;96
29173;DHT22;16223;47.966;-1.616;2022-11-15T03:54:50;11.2;96
29173;DHT22;16223;47.966;-1.616;2022-11-15T03:55:47;11.2;96
29173;DHT22;16223;47.966;-1.616;2022-11-15T03:56:47;11.2;96
29173;DHT22;16223;47.966;-1.616;2022-11-15T03:57:48;11.2;96
29173;DHT22;16223;47.966;-1.616;2022-11-15T03:58:47;11.2;96
29173;DHT22;16223;47.966;-1.616;2022-11-15T03:59:47;11.2;96
29173;DHT22;16223;47.966;-1.616;2022-11-15T04:00:47;11.2;96
29173;DHT22;16223;47.966;-1.616;2022-11-15T04:01:47;11.2;96
29173;DHT22;16223;47.966;-1.616;2022-11-15T04:02:47;11.2;96
29173;DHT22;16223;47.966;-1.616;2022-11-15T04:03:47;11.2;96
29173;DHT22;16223;47.966;-1.616;2022-11-15T04:04:47;11.2;96
29173;DHT22;16223;47.966;-1.616;2022-11-15T04:05:47;11.2;96
29173;DHT22;16223;47.966;-1.616;2022-11-15T04:06:47;11.2;96
29173;DHT22;16223;47.966;-1.616;2022-11-15T04:07:47;11.2;96
29173;DHT22;16223;47.966;-1.616;2022-11-15T04:08:47;11.2;96
29173;DHT22;16223;47.966;-1.616;2022-11-15T04:09:47;11.2;96
29173;DHT22;16223;47.966;-1.616;2022-11-15T04:10:48;11.2;96
29173;DHT22;16223;47.966;-1.616;2022-11-15T04:11:47;11.2;96
29173;DHT22;16223;47.966;-1.616;2022-11-15T04:12:47;11.2;96
29173;DHT22;16223;47.966;-1.616;2022-11-15T04:13:47;11.2;96
29173;DHT22;16223;47.966;-1.616;2022-11-15T04:14:47;11.2;96
29173;DHT22;16223;47.966;-1.616;2022-11-15T04:15:47;11.2;96
29173;DHT22;16223;47.966;-1.616;2022-11-15T04:16:47;11.2;96
29173;DHT22;16223;47.966;-1.616;2022-11-15T04:17:49;11.2;96
29173;DHT22;16223;47.966;-1.616;2022-11-15T04:18:47;11.2;96
29173;DHT22;16223;47.966;-1.616;2022-11-15T04:19:47;11.2;96
29173;DHT22;16223;47.966;-1.616;2022-11-15T04:20:47;11.2;96
29173;DHT22;16223;47.966;-1.616;2022-11-15T04:21:46;11.2;96
29173;DHT22;16223;47.966;-1.616;2022-11-15T04:22:47;11.2;96
29173;DHT22;16223;47.966;-1.616;2022-11-15T04:23:46;11.2;96
29173;DHT22;16223;47.966;-1.616;2022-11-15T04:24:48;11.2;96
29173;DHT22;16223;47.966;-1.616;2022-11-15T04:25:48;11.2;96
29173;DHT22;16223;47.966;-1.616;2022-11-15T04:26:47;11.2;96
29173;DHT22;16223;47.966;-1.616;2022-11-15T04:27:47;11.2;96
29173;DHT22;16223;47.966;-1.616;2022-11-15T04:28:47;11.2;96
29173;DHT22;16223;47.966;-1.616;2022-11-15T04:29:47;11.2;96
29173;DHT22;16223;47.966;-1.616;2022-11-15T04:30:47;11.2;96
29173;DHT22;16223;47.966;-1.616;2022-11-15T04:31:47;11.2;96
29173;DHT22;16223;47.966;-1.616;2022-11-15T04:32:47;11.2;96
29173;DHT22;16223;47.966;-1.616;2022-11-15T04:33:47;11.2;96
29173;DHT22;16223;47.966;-1.616;2022-11-15T04:34:47;11.2;96
29173;DHT22;16223;47.966;-1.616;2022-11-15T04:35:46;11.2;96
29173;DHT22;16223;47.966;-1.616;2022-11-15T04:36:47;11.2;96
29173;DHT22;16223;47.966;-1.616;2022-11-15T04:37:47;11.2;97
29173;DHT22;16223;47.966;-1.616;2022-11-15T04:38:47;11.2;97
29173;DHT22;16223;47.966;-1.616;2022-11-15T04:39:47;11.2;97
29173;DHT22;16223;47.966;-1.616;2022-11-15T04:40:47;11.2;97
29173;DHT22;16223;47.966;-1.616;2022-11-15T04:41:47;11.2;97
29173;DHT22;16223;47.966;-1.616;2022-11-15T04:42:47;11.2;97
29173;DHT22;16223;47.966;-1.616;2022-11-15T04:43:47;11.2;97
29173;DHT22;16223;47.966;-1.616;2022-11-15T04:44:47;11.2;97
29173;DHT22;16223;47.966;-1.616;2022-11-15T04:45:47;11.2;97
29173;DHT22;16223;47.966;-1.616;2022-11-15T04:46:47;11.2;97
29173;DHT22;16223;47.966;-1.616;2022-11-15T04:47:47;11.2;97
29173;DHT22;16223;47.966;-1.616;2022-11-15T04:48:47;11.2;97
29173;DHT22;16223;47.966;-1.616;2022-11-15T04:49:47;11.2;97
29173;DHT22;16223;47.966;-1.616;2022-11-15T04:50:47;11.2;97
29173;DHT22;16223;47.966;-1.616;2022-11-15T04:51:48;11.2;97
29173;DHT22;16223;47.966;-1.616;2022-11-15T04:52:52;11.2;97
29173;DHT22;16223;47.966;-1.616;2022-11-15T04:53:47;11.2;97
29173;DHT22;16223;47.966;-1.616;2022-11-15T04:54:47;11.2;97
29173;DHT22;16223;47.966;-1.616;2022-11-15T04:55:47;11.2;97
29173;DHT22;16223;47.966;-1.616;2022-11-15T04:56:46;11.2;97
29173;DHT22;16223;47.966;-1.616;2022-11-15T04:57:47;11.2;97
29173;DHT22;16223;47.966;-1.616;2022-11-15T04:58:48;11.2;97
29173;DHT22;16223;47.966;-1.616;2022-11-15T04:59:47;11.2;97
29173;DHT22;16223;47.966;-1.616;2022-11-15T05:00:47;11.2;97
29173;DHT22;16223;47.966;-1.616;2022-11-15T05:01:47;11.2;97
29173;DHT22;16223;47.966;-1.616;2022-11-15T05:02:47;11.2;97
29173;DHT22;16223;47.966;-1.616;2022-11-15T05:03:47;11.1;99
29173;DHT22;16223;47.966;-1.616;2022-11-15T05:04:46;11.1;99
29173;DHT22;16223;47.966;-1.616;2022-11-15T05:05:47;11.1;99
29173;DHT22;16223;47.966;-1.616;2022-11-15T05:06:48;11.1;99
29173;DHT22;16223;47.966;-1.616;2022-11-15T05:07:47;11.1;99
29173;DHT22;16223;47.966;-1.616;2022-11-15T05:08:47;11.1;99
29173;DHT22;16223;47.966;-1.616;2022-11-15T05:09:47;11.1;99
29173;DHT22;16223;47.966;-1.616;2022-11-15T05:10:47;11.1;99
29173;DHT22;16223;47.966;-1.616;2022-11-15T05:11:47;11.1;99
29173;DHT22;16223;47.966;-1.616;2022-11-15T05:12:48;11.1;99
29173;DHT22;16223;47.966;-1.616;2022-11-15T05:13:47;11.1;99
29173;DHT22;16223;47.966;-1.616;2022-11-15T05:14:47;11.1;99
29173;DHT22;16223;47.966;-1.616;2022-11-15T05:15:47;11.1;99
29173;DHT22;16223;47.966;-1.616;2022-11-15T05:16:47;11.1;99
29173;DHT22;16223;47.966;-1.616;2022-11-15T05:17:47;11.1;99
29173;DHT22;16223;47.966;-1.616;2022-11-15T05:18:50;11.1;99
29173;DHT22;16223;47.966;-1.616;2022-11-15T05:19:47;11.1;99
29173;DHT22;16223;47.966;-1.616;2022-11-15T05:20:47;11.1;99
29173;DHT22;16223;47.966;-1.616;2022-11-15T05:21:47;11.1;99
29173;DHT22;16223;47.966;-1.616;2022-11-15T05:22:47;11.1;99
29173;DHT22;16223;47.966;-1.616;2022-11-15T05:23:47;11.1;99
29173;DHT22;16223;47.966;-1.616;2022-11-15T05:24:47;11.1;99
29173;DHT22;16223;47.966;-1.616;2022-11-15T05:25:47;11.1;99
29173;DHT22;16223;47.966;-1.616;2022-11-15T05:26:47;11.1;99
29173;DHT22;16223;47.966;-1.616;2022-11-15T05:27:47;11.1;99
29173;DHT22;16223;47.966;-1.616;2022-11-15T05:28:51;11.1;99
29173;DHT22;16223;47.966;-1.616;2022-11-15T05:29:47;11.1;99
29173;DHT22;16223;47.966;-1.616;2022-11-15T05:30:47;11.1;99
29173;DHT22;16223;47.966;-1.616;2022-11-15T05:31:47;11.1;99
29173;DHT22;16223;47.966;-1.616;2022-11-15T05:32:47;11.1;99
29173;DHT22;16223;47.966;-1.616;2022-11-15T05:33:48;11.1;99
29173;DHT22;16223;47.966;-1.616;2022-11-15T05:34:47;11.0;100
29173;DHT22;16223;47.966;-1.616;2022-11-15T05:35:50;11.0;100
29173;DHT22;16223;47.966;-1.616;2022-11-15T05:36:47;11.0;100
29173;DHT22;16223;47.966;-1.616;2022-11-15T05:37:47;11.0;100
29173;DHT22;16223;47.966;-1.616;2022-11-15T05:38:47;11.0;100
29173;DHT22;16223;47.966;-1.616;2022-11-15T05:39:47;11.0;100
29173;DHT22;16223;47.966;-1.616;2022-11-15T05:40:47;11.0;100
29173;DHT22;16223;47.966;-1.616;2022-11-15T05:41:50;11.0;100
29173;DHT22;16223;47.966;-1.616;2022-11-15T05:42:47;11.0;100
29173;DHT22;16223;47.966;-1.616;2022-11-15T05:43:47;11.0;100
29173;DHT22;16223;47.966;-1.616;2022-11-15T05:44:48;11.0;100
29173;DHT22;16223;47.966;-1.616;2022-11-15T05:45:47;11.0;100
29173;DHT22;16223;47.966;-1.616;2022-11-15T05:46:47;11.0;100
29173;DHT22;16223;47.966;-1.616;2022-11-15T05:47:47;11.0;100
29173;DHT22;16223;47.966;-1.616;2022-11-15T05:48:49;11.0;100
29173;DHT22;16223;47.966;-1.616;2022-11-15T05:49:47;11.0;100
29173;DHT22;16223;47.966;-1.616;2022-11-15T05:50:48;11.0;100
29173;DHT22;16223;47.966;-1.616;2022-11-15T05:51:48;11.0;100
29173;DHT22;16223;47.966;-1.616;2022-11-15T05:52:48;11.0;100
29173;DHT22;16223;47.966;-1.616;2022-11-15T05:53:48;11.0;100
29173;DHT22;16223;47.966;-1.616;2022-11-15T05:54:47;11.0;100
29173;DHT22;16223;47.966;-1.616;2022-11-15T05:55:47;11.0;100
29173;DHT22;16223;47.966;-1.616;2022-11-15T05:56:47;11.0;100
29173;DHT22;16223;47.966;-1.616;2022-11-15T05:57:47;11.0;100
29173;DHT22;16223;47.966;-1.616;2022-11-15T05:58:47;11.0;100
29173;DHT22;16223;47.966;-1.616;2022-11-15T05:59:47;11.0;100
29173;DHT22;16223;47.966;-1.616;2022-11-15T06:00:47;11.0;100
29173;DHT22;16223;47.966;-1.616;2022-11-15T06:01:48;11.0;100
29173;DHT22;16223;47.966;-1.616;2022-11-15T06:02:47;11.0;100
29173;DHT22;16223;47.966;-1.616;2022-11-15T06:03:46;11.0;100
29173;DHT22;16223;47.966;-1.616;2022-11-15T06:04:47;11.0;100
29173;DHT22;16223;47.966;-1.616;2022-11-15T06:05:47;11.0;100
29173;DHT22;16223;47.966;-1.616;2022-11-15T06:06:47;11.0;100
29173;DHT22;16223;47.966;-1.616;2022-11-15T06:07:47;11.0;100
29173;DHT22;16223;47.966;-1.616;2022-11-15T06:08:47;11.0;100
29173;DHT22;16223;47.966;-1.616;2022-11-15T06:09:47;11.0;100
29173;DHT22;16223;47.966;-1.616;2022-11-15T06:10:47;11.0;100
29173;DHT22;16223;47.966;-1.616;2022-11-15T06:11:47;11.0;100
29173;DHT22;16223;47.966;-1.616;2022-11-15T06:12:47;11.0;100
29173;DHT22;16223;47.966;-1.616;2022-11-15T06:13:47;11.0;100
29173;DHT22;16223;47.966;-1.616;2022-11-15T06:14:47;11.0;100
29173;DHT22;16223;47.966;-1.616;2022-11-15T06:15:47;11.0;100
29173;DHT22;16223;47.966;-1.616;2022-11-15T06:16:47;11.0;100
29173;DHT22;16223;47.966;-1.616;2022-11-15T06:17:47;11.0;100
29173;DHT22;16223;47.966;-1.616;2022-11-15T06:18:47;11.0;100
29173;DHT22;16223;47.966;-1.616;2022-11-15T06:19:47;11.0;100
29173;DHT22;16223;47.966;-1.616;2022-11-15T06:20:46;11.0;100
29173;DHT22;16223;47.966;-1.616;2022-11-15T06:21:47;11.0;100
29173;DHT22;16223;47.966;-1.616;2022-11-15T06:22:47;11.0;100
29173;DHT22;16223;47.966;-1.616;2022-11-15T06:23:47;11.0;100
29173;DHT22;16223;47.966;-1.616;2022-11-15T06:24:47;11.0;100
29173;DHT22;16223;47.966;-1.616;2022-11-15T06:25:47;11.0;100
29173;DHT22;16223;47.966;-1.616;2022-11-15T06:26:47;11.0;100
29173;DHT22;16223;47.966;-1.616;2022-11-15T06:27:53;11.0;100
29173;DHT22;16223;47.966;-1.616;2022-11-15T06:28:47;11.0;100
29173;DHT22;16223;47.966;-1.616;2022-11-15T06:29:47;11.0;100
29173;DHT22;16223;47.966;-1.616;2022-11-15T06:30:47;11.0;100
29173;DHT22;16223;47.966;-1.616;2022-11-15T06:31:47;11.0;100
29173;DHT22;16223;47.966;-1.616;2022-11-15T06:32:47;11.2;100
29173;DHT22;16223;47.966;-1.616;2022-11-15T06:33:47;11.2;100
29173;DHT22;16223;47.966;-1.616;2022-11-15T06:34:46;11.2;100
29173;DHT22;16223;47.966;-1.616;2022-11-15T06:35:47;11.2;100
29173;DHT22;16223;47.966;-1.616;2022-11-15T06:36:47;11.2;100
29173;DHT22;16223;47.966;-1.616;2022-11-15T06:37:47;11.2;100
29173;DHT22;16223;47.966;-1.616;2022-11-15T06:38:47;11.2;100
29173;DHT22;16223;47.966;-1.616;2022-11-15T06:39:47;11.2;100
29173;DHT22;16223;47.966;-1.616;2022-11-15T06:40:47;11.2;100
29173;DHT22;16223;47.966;-1.616;2022-11-15T06:41:47;11.2;100